createdAt,value
2023-02-05T00:03:00.659Z,101765.06
2023-02-05T00:06:03.348Z,101770.88
2023-02-05T00:09:05.990Z,101768.16
2023-02-05T00:12:08.613Z,101767.06
2023-02-05T00:15:11.336Z,101764.56
2023-02-05T00:18:14.107Z,101762.78
2023-02-05T00:21:17.575Z,101773.53
2023-02-05T00:24:20.073Z,101772.53
2023-02-05T00:27:22.613Z,101778.50
2023-02-05T00:30:25.466Z,101787.50
2023-02-05T00:33:27.963Z,101785.91
2023-02-05T00:36:30.483Z,101786.00
2023-02-05T00:39:33.049Z,101786.38
2023-02-05T00:42:35.638Z,101788.38
2023-02-05T00:45:38.298Z,101791.16
2023-02-05T00:48:41.894Z,101789.75
2023-02-05T00:51:44.368Z,101786.28
2023-02-05T00:54:46.912Z,101794.13
2023-02-05T00:57:49.690Z,101781.88
2023-02-05T01:00:52.433Z,101785.50
2023-02-05T01:03:55.182Z,101792.47
2023-02-05T01:06:57.666Z,101808.22
2023-02-05T01:10:00.276Z,101789.25
2023-02-05T01:13:04.557Z,101795.06
2023-02-05T01:16:07.917Z,101792.63
2023-02-05T01:19:10.517Z,101795.75
2023-02-05T01:22:13.362Z,101791.22
2023-02-05T01:25:15.812Z,101798.41
2023-02-05T01:28:18.540Z,101797.63
2023-02-05T01:31:22.465Z,101806.75
2023-02-05T01:34:24.939Z,101810.75
2023-02-05T01:37:27.471Z,101813.56
2023-02-05T01:40:30.420Z,101817.41
2023-02-05T01:43:33.082Z,101817.59
2023-02-05T01:46:37.261Z,101811.81
2023-02-05T01:49:43.762Z,101812.91
2023-02-05T01:52:46.458Z,101815.53
2023-02-05T01:55:59.220Z,101814.91
2023-02-05T01:59:11.913Z,101805.34
2023-02-05T02:02:14.537Z,101807.28
2023-02-05T02:05:20.008Z,101807.38
2023-02-05T02:08:23.300Z,101806.66
2023-02-05T02:11:29.250Z,101800.84
2023-02-05T02:14:36.117Z,101810.09
2023-02-05T02:17:42.231Z,101812.81
2023-02-05T02:20:47.169Z,101817.22
2023-02-05T02:24:02.750Z,101829.06
2023-02-05T02:27:33.202Z,101830.34
2023-02-05T02:31:01.190Z,101847.22
2023-02-05T02:34:35.044Z,101844.25
2023-02-05T02:37:48.037Z,101843.97
2023-02-05T02:40:59.469Z,101849.53
2023-02-05T02:44:25.170Z,101850.75
2023-02-05T02:47:40.963Z,101859.56
2023-02-05T02:50:48.564Z,101854.06
2023-02-05T02:53:56.747Z,101866.03
2023-02-05T02:57:03.438Z,101865.84
2023-02-05T03:00:12.439Z,101871.69
2023-02-05T03:03:20.185Z,101878.56
2023-02-05T03:06:23.060Z,101883.28
2023-02-05T03:09:45.951Z,101890.06
2023-02-05T03:12:48.795Z,101890.91
2023-02-05T03:15:53.188Z,101884.25
2023-02-05T03:18:59.551Z,101890.06
2023-02-05T03:22:06.772Z,101894.28
2023-02-05T03:25:09.402Z,101888.00
2023-02-05T03:28:14.142Z,101896.53
2023-02-05T03:31:28.877Z,101910.13
2023-02-05T03:34:46.022Z,101904.69
2023-02-05T03:38:07.137Z,101915.09
2023-02-05T03:41:16.951Z,101920.81
2023-02-05T03:44:38.138Z,101927.00
2023-02-05T03:48:05.155Z,101926.16
2023-02-05T03:51:30.251Z,101928.69
2023-02-05T03:54:38.645Z,101926.03
2023-02-05T03:57:53.717Z,101929.13
2023-02-05T04:00:58.642Z,101935.50
2023-02-05T04:04:01.414Z,101935.59
2023-02-05T04:07:05.190Z,101942.78
2023-02-05T04:10:09.605Z,101942.78
2023-02-05T04:13:15.538Z,101940.25
2023-02-05T04:16:19.425Z,101946.56
2023-02-05T04:19:22.228Z,101954.34
2023-02-05T04:22:24.870Z,101961.22
2023-02-05T04:25:27.699Z,101958.03
2023-02-05T04:28:36.202Z,101954.34
2023-02-05T04:31:40.823Z,101958.59
2023-02-05T04:34:43.689Z,101962.13
2023-02-05T04:37:48.642Z,101963.84
2023-02-05T04:40:52.055Z,101970.09
2023-02-05T04:43:54.507Z,101972.38
2023-02-05T04:46:57.042Z,101971.75
2023-02-05T04:49:59.780Z,101986.38
2023-02-05T04:53:02.367Z,101992.75
2023-02-05T04:56:14.708Z,101990.13
2023-02-05T04:59:17.177Z,101999.00
2023-02-05T05:02:19.628Z,101990.84
2023-02-05T05:05:22.103Z,101999.97
2023-02-05T05:08:24.775Z,101994.81
2023-02-05T05:11:27.347Z,101996.47
2023-02-05T05:14:29.917Z,101995.53
2023-02-05T05:17:33.967Z,102007.34
2023-02-05T05:20:36.733Z,102017.25
2023-02-05T05:23:39.254Z,102022.91
2023-02-05T05:26:43.823Z,102021.88
2023-02-05T05:29:46.576Z,102019.63
2023-02-05T05:32:49.014Z,102019.53
2023-02-05T05:35:51.545Z,102018.78
2023-02-05T05:38:54.056Z,102027.13
2023-02-05T05:42:15.475Z,102031.72
2023-02-05T05:45:18.098Z,102032.81
2023-02-05T05:48:20.531Z,102034.13
2023-02-05T05:51:24.490Z,102040.84
2023-02-05T05:54:27.015Z,102047.16
2023-02-05T05:57:29.545Z,102047.53
2023-02-05T06:00:32.118Z,102055.22
2023-02-05T06:03:35.189Z,102066.31
2023-02-05T06:06:38.181Z,102069.97
2023-02-05T06:09:40.813Z,102062.09
2023-02-05T06:12:43.336Z,102059.06
2023-02-05T06:15:47.459Z,102060.56
2023-02-05T06:18:50.144Z,102075.31
2023-02-05T06:21:52.908Z,102079.31
2023-02-05T06:24:55.500Z,102090.31
2023-02-05T06:27:58.133Z,102088.34
2023-02-05T06:31:01.357Z,102097.97
2023-02-05T06:34:04.086Z,102083.09
2023-02-05T06:37:07.350Z,102075.91
2023-02-05T06:40:11.002Z,102076.00
2023-02-05T06:43:15.899Z,102075.25
2023-02-05T06:46:18.468Z,102077.44
2023-02-05T06:49:21.071Z,102088.13
2023-02-05T06:52:23.621Z,102085.50
2023-02-05T06:55:26.221Z,102089.13
2023-02-05T06:58:28.734Z,102094.09
2023-02-05T07:01:31.568Z,102081.38
2023-02-05T07:04:34.711Z,102088.28
2023-02-05T07:07:37.629Z,102081.69
2023-02-05T07:10:42.754Z,102081.56
2023-02-05T07:13:45.282Z,102089.97
2023-02-05T07:16:48.004Z,102096.66
2023-02-05T07:19:50.903Z,102101.41
2023-02-05T07:22:53.381Z,102111.88
2023-02-05T07:25:55.988Z,102115.72
2023-02-05T07:28:58.610Z,102118.06
2023-02-05T07:32:01.114Z,102116.13
2023-02-05T07:35:03.937Z,102118.25
2023-02-05T07:38:06.486Z,102110.53
2023-02-05T07:41:11.600Z,102110.72
2023-02-05T07:44:14.162Z,102109.34
2023-02-05T07:47:16.742Z,102117.56
2023-02-05T07:50:20.311Z,102112.75
2023-02-05T07:53:22.813Z,102112.31
2023-02-05T07:56:25.876Z,102106.16
2023-02-05T07:59:29.095Z,102111.81
2023-02-05T08:02:31.789Z,102109.78
2023-02-05T08:05:34.631Z,102113.78
2023-02-05T08:08:37.335Z,102115.63
2023-02-05T08:11:39.915Z,102118.00
2023-02-05T08:14:42.481Z,102118.00
2023-02-05T08:17:44.982Z,102116.41
2023-02-05T08:20:47.626Z,102120.09
2023-02-05T08:23:50.091Z,102117.28
2023-02-05T08:26:52.596Z,102122.38
2023-02-05T08:29:55.195Z,102109.22
2023-02-05T08:32:57.775Z,102107.78
2023-02-05T08:36:00.376Z,102108.41
2023-02-05T08:39:02.852Z,102108.28
2023-02-05T08:42:05.617Z,102106.19
2023-02-05T08:45:09.145Z,102110.28
2023-02-05T08:48:11.646Z,102117.03
2023-02-05T08:51:15.501Z,102119.91
2023-02-05T08:54:18.384Z,102116.47
2023-02-05T08:57:20.870Z,102118.00
2023-02-05T09:00:23.822Z,102112.47
2023-02-05T09:03:26.793Z,102117.47
2023-02-05T09:06:29.294Z,102120.00
2023-02-05T09:09:32.912Z,102113.59
2023-02-05T09:12:35.593Z,102113.16
2023-02-05T09:15:48.411Z,102110.19
2023-02-05T09:18:51.210Z,102115.25
2023-02-05T09:21:54.266Z,102111.59
2023-02-05T09:24:56.892Z,102110.34
2023-02-05T09:27:59.808Z,102110.25
2023-02-05T09:31:08.566Z,102104.22
2023-02-05T09:34:11.184Z,102106.19
2023-02-05T09:37:13.691Z,102108.34
2023-02-05T09:40:23.437Z,102115.63
2023-02-05T09:43:43.988Z,102101.94
2023-02-05T09:46:52.067Z,102111.97
2023-02-05T09:50:15.223Z,102107.28
2023-02-05T09:53:21.487Z,102108.44
2023-02-05T09:56:27.193Z,102112.91
2023-02-05T09:59:31.505Z,102117.19
2023-02-05T10:02:49.970Z,102105.97
2023-02-05T10:05:52.377Z,102096.44
2023-02-05T10:09:09.861Z,102099.22
2023-02-05T10:12:43.626Z,102098.94
2023-02-05T10:16:03.329Z,102101.06
2023-02-05T10:19:44.128Z,102093.66
2023-02-05T10:22:49.586Z,102089.09
2023-02-05T10:26:01.854Z,102089.31
2023-02-05T10:29:47.256Z,102088.81
2023-02-05T10:32:58.688Z,102087.81
2023-02-05T10:36:06.223Z,102088.13
2023-02-05T10:39:17.390Z,102085.31
2023-02-05T10:42:42.849Z,102080.19
2023-02-05T10:45:45.505Z,102068.47
2023-02-05T10:48:57.363Z,102075.59
2023-02-05T10:51:59.778Z,102067.34
2023-02-05T10:55:02.259Z,102065.94
2023-02-05T10:58:38.855Z,102057.56
2023-02-05T11:01:42.195Z,102056.97
2023-02-05T11:05:01.054Z,102061.75
2023-02-05T11:08:04.536Z,102056.88
2023-02-05T11:11:18.042Z,102059.41
2023-02-05T11:14:43.792Z,102055.03
2023-02-05T11:17:52.349Z,102052.31
2023-02-05T11:21:01.005Z,102055.25
2023-02-05T11:24:03.686Z,102043.50
2023-02-05T11:27:31.797Z,102049.25
2023-02-05T11:30:53.225Z,102051.00
2023-02-05T11:34:07.996Z,102050.56
2023-02-05T11:37:17.195Z,102034.34
2023-02-05T11:40:22.234Z,102033.69
2023-02-05T11:43:32.389Z,102026.97
2023-02-05T11:46:44.296Z,102026.25
2023-02-05T11:49:51.319Z,102024.47
2023-02-05T11:53:09.473Z,102021.31
2023-02-05T11:56:21.480Z,102022.50
2023-02-05T11:59:24.641Z,102016.28
2023-02-05T12:02:29.798Z,102009.81
2023-02-05T12:05:40.361Z,101997.19
2023-02-05T12:08:49.526Z,102004.66
2023-02-05T12:12:11.355Z,101994.88
2023-02-05T12:15:59.880Z,101992.56
2023-02-05T12:19:50.068Z,102002.56
2023-02-05T12:23:18.951Z,101994.97
2023-02-05T12:26:35.121Z,101993.72
2023-02-05T12:29:58.092Z,101987.06
2023-02-05T12:33:19.393Z,101997.94
2023-02-05T12:37:06.447Z,101988.41
2023-02-05T12:40:37.039Z,101974.31
2023-02-05T12:43:46.544Z,101966.88
2023-02-05T12:47:01.039Z,101966.94
2023-02-05T12:50:10.839Z,101970.88
2023-02-05T12:53:44.080Z,101960.91
2023-02-05T12:57:51.170Z,101963.09
2023-02-05T13:01:00.389Z,101937.97
2023-02-05T13:04:04.763Z,101947.75
2023-02-05T13:07:18.538Z,101942.00
2023-02-05T13:10:24.991Z,101941.84
2023-02-05T13:13:33.297Z,101937.81
2023-02-05T13:16:42.125Z,101943.91
2023-02-05T13:19:51.544Z,101946.16
2023-02-05T13:23:16.384Z,101945.41
2023-02-05T13:26:25.166Z,101944.00
2023-02-05T13:29:32.214Z,101944.28
2023-02-05T13:32:36.749Z,101943.00
2023-02-05T13:36:24.137Z,101944.22
2023-02-05T13:39:34.642Z,101954.03
2023-02-05T13:43:16.241Z,101950.13
2023-02-05T13:46:48.009Z,101949.78
2023-02-05T13:49:50.579Z,101942.72
2023-02-05T13:52:53.221Z,101950.59
2023-02-05T13:56:22.208Z,101945.78
2023-02-05T13:59:34.344Z,101950.78
2023-02-05T14:02:43.424Z,101959.69
2023-02-05T14:05:46.204Z,101962.06
2023-02-05T14:09:00.208Z,101956.78
2023-02-05T14:12:07.710Z,101953.03
2023-02-05T14:15:20.105Z,101959.38
2023-02-05T14:18:40.691Z,101956.88
2023-02-05T14:21:45.998Z,101958.69
2023-02-05T14:24:50.471Z,101952.47
2023-02-05T14:27:55.507Z,101955.31
2023-02-05T14:31:00.741Z,101958.13
2023-02-05T14:34:44.726Z,101955.13
2023-02-05T14:37:50.314Z,101959.91
2023-02-05T14:41:16.128Z,101950.91
2023-02-05T14:44:29.109Z,101955.13
2023-02-05T14:47:35.804Z,101949.94
2023-02-05T14:50:40.657Z,101948.59
2023-02-05T14:53:54.609Z,101958.09
2023-02-05T14:57:21.074Z,101950.94
2023-02-05T15:00:31.946Z,101952.78
2023-02-05T15:03:40.393Z,101957.13
2023-02-05T15:06:44.560Z,101960.22
2023-02-05T15:09:57.532Z,101969.69
2023-02-05T15:13:15.436Z,101968.81
2023-02-05T15:16:21.503Z,101974.16
2023-02-05T15:19:24.310Z,101971.78
2023-02-05T15:22:37.243Z,101970.56
2023-02-05T15:25:45.321Z,101972.34
2023-02-05T15:29:01.637Z,101980.72
2023-02-05T15:32:16.618Z,101972.75
2023-02-05T15:35:22.735Z,101979.28
2023-02-05T15:38:43.111Z,101984.53
2023-02-05T15:41:47.394Z,101980.06
2023-02-05T15:44:49.924Z,101981.19
2023-02-05T15:48:13.772Z,101980.47
2023-02-05T15:51:28.765Z,101983.34
2023-02-05T15:54:35.980Z,101976.44
2023-02-05T15:57:39.131Z,101981.63
2023-02-05T16:00:45.731Z,101992.81
2023-02-05T16:03:48.603Z,101996.59
2023-02-05T16:06:51.461Z,102002.34
2023-02-05T16:09:57.899Z,102007.88
2023-02-05T16:13:01.325Z,102013.84
2023-02-05T16:16:15.312Z,102014.44
2023-02-05T16:19:25.134Z,102004.78
2023-02-05T16:22:36.699Z,102016.03
2023-02-05T16:25:45.930Z,102023.00
2023-02-05T16:28:54.425Z,102016.53
2023-02-05T16:32:05.448Z,102019.31
2023-02-05T16:35:22.818Z,102015.69
2023-02-05T16:38:28.232Z,102017.47
2023-02-05T16:41:40.377Z,102024.09
2023-02-05T16:44:47.291Z,102028.75
2023-02-05T16:48:21.739Z,102037.47
2023-02-05T16:51:53.638Z,102037.03
2023-02-05T16:54:58.119Z,102036.97
2023-02-05T16:58:06.393Z,102047.28
2023-02-05T17:01:09.810Z,102046.94
2023-02-05T17:04:26.831Z,102045.84
2023-02-05T17:07:30.800Z,102055.66
2023-02-05T17:10:54.751Z,102058.53
2023-02-05T17:14:31.264Z,102066.91
2023-02-05T17:17:48.474Z,102072.94
2023-02-05T17:20:51.467Z,102074.13
2023-02-05T17:23:57.142Z,102077.50
2023-02-05T17:26:59.928Z,102081.03
2023-02-05T17:30:05.585Z,102082.66
2023-02-05T17:33:09.968Z,102076.31
2023-02-05T17:36:17.566Z,102078.06
2023-02-05T17:39:20.354Z,102084.94
2023-02-05T17:42:25.705Z,102086.63
2023-02-05T17:45:32.933Z,102092.19
2023-02-05T17:48:35.808Z,102091.59
2023-02-05T17:51:41.754Z,102091.94
2023-02-05T17:54:47.641Z,102104.97
2023-02-05T17:57:50.114Z,102118.16
2023-02-05T18:00:53.338Z,102112.38
2023-02-05T18:03:56.144Z,102116.63
2023-02-05T18:06:59.020Z,102115.06
2023-02-05T18:10:01.510Z,102118.19
2023-02-05T18:13:04.745Z,102123.16
2023-02-05T18:16:08.415Z,102133.41
2023-02-05T18:19:12.243Z,102134.59
2023-02-05T18:22:15.547Z,102137.22
2023-02-05T18:25:18.733Z,102136.53
2023-02-05T18:28:21.489Z,102145.16
2023-02-05T18:31:24.862Z,102143.63
2023-02-05T18:34:27.840Z,102144.06
2023-02-05T18:37:30.634Z,102149.38
2023-02-05T18:40:33.631Z,102154.78
2023-02-05T18:43:37.260Z,102156.94
2023-02-05T18:46:39.864Z,102166.19
2023-02-05T18:49:42.669Z,102166.28
2023-02-05T18:52:45.364Z,102162.94
2023-02-05T18:56:03.996Z,102174.91
2023-02-05T18:59:08.632Z,102176.13
2023-02-05T19:02:11.988Z,102172.88
2023-02-05T19:05:14.670Z,102187.19
2023-02-05T19:08:17.723Z,102183.94
2023-02-05T19:11:24.280Z,102188.38
2023-02-05T19:14:27.628Z,102200.38
2023-02-05T19:17:30.425Z,102198.22
2023-02-05T19:20:35.030Z,102197.28
2023-02-05T19:23:38.927Z,102202.16
2023-02-05T19:26:45.398Z,102198.84
2023-02-05T19:29:48.300Z,102217.22
2023-02-05T19:32:50.978Z,102212.47
2023-02-05T19:35:54.791Z,102221.09
2023-02-05T19:39:00.570Z,102226.53
2023-02-05T19:42:03.417Z,102227.13
2023-02-05T19:45:06.736Z,102234.63
2023-02-05T19:48:09.490Z,102238.56
2023-02-05T19:51:13.651Z,102237.09
2023-02-05T19:54:20.594Z,102241.25
2023-02-05T19:57:25.038Z,102235.50
2023-02-05T20:00:28.670Z,102245.91
2023-02-05T20:03:32.626Z,102239.78
2023-02-05T20:06:36.563Z,102232.91
2023-02-05T20:09:39.353Z,102233.19
2023-02-05T20:12:42.326Z,102233.72
2023-02-05T20:15:45.691Z,102231.25
2023-02-05T20:18:57.796Z,102231.19
2023-02-05T20:22:00.357Z,102238.44
2023-02-05T20:25:03.284Z,102240.22
2023-02-05T20:28:06.463Z,102249.91
2023-02-05T20:31:27.453Z,102251.59
2023-02-05T20:34:31.231Z,102253.75
2023-02-05T20:37:36.862Z,102259.25
2023-02-05T20:40:39.625Z,102258.28
2023-02-05T20:43:42.250Z,102260.44
2023-02-05T20:46:45.505Z,102257.03
2023-02-05T20:49:48.480Z,102260.03
2023-02-05T20:52:51.339Z,102258.47
2023-02-05T20:56:00.576Z,102264.06
2023-02-05T20:59:05.810Z,102265.13
2023-02-05T21:02:10.519Z,102269.34
2023-02-05T21:05:13.279Z,102274.84
2023-02-05T21:08:15.964Z,102276.81
2023-02-05T21:11:20.145Z,102274.28
2023-02-05T21:14:23.569Z,102278.81
2023-02-05T21:17:26.202Z,102288.66
2023-02-05T21:20:30.245Z,102282.63
2023-02-05T21:23:33.700Z,102273.34
2023-02-05T21:26:40.552Z,102275.06
2023-02-05T21:29:43.663Z,102280.59
2023-02-05T21:32:46.237Z,102285.19
2023-02-05T21:35:48.662Z,102293.13
2023-02-05T21:38:52.463Z,102301.94
2023-02-05T21:41:55.301Z,102306.47
2023-02-05T21:44:57.992Z,102305.03
2023-02-05T21:48:00.701Z,102315.53
2023-02-05T21:51:07.925Z,102321.28
2023-02-05T21:54:11.084Z,102327.34
2023-02-05T21:57:13.533Z,102327.47
2023-02-05T22:00:20.764Z,102327.94
2023-02-05T22:03:23.311Z,102340.25
2023-02-05T22:06:28.776Z,102338.78
2023-02-05T22:09:31.312Z,102346.78
2023-02-05T22:12:34.051Z,102356.53
2023-02-05T22:15:36.910Z,102355.66
2023-02-05T22:18:40.203Z,102369.41
2023-02-05T22:21:44.024Z,102369.69
2023-02-05T22:24:46.603Z,102372.41
2023-02-05T22:27:49.215Z,102376.81
2023-02-05T22:30:58.134Z,102369.91
2023-02-05T22:34:01.115Z,102376.00
2023-02-05T22:37:03.604Z,102370.16
2023-02-05T22:40:06.942Z,102372.03
2023-02-05T22:43:11.652Z,102367.66
2023-02-05T22:46:21.601Z,102376.28
2023-02-05T22:49:24.113Z,102374.75
2023-02-05T22:52:26.739Z,102382.75
2023-02-05T22:55:29.195Z,102381.19
2023-02-05T22:58:32.338Z,102376.94
2023-02-05T23:01:36.652Z,102367.41
2023-02-05T23:04:39.265Z,102369.91
2023-02-05T23:07:41.759Z,102372.56
2023-02-05T23:10:46.012Z,102368.84
2023-02-05T23:13:49.233Z,102378.69
2023-02-05T23:16:51.747Z,102383.41
2023-02-05T23:19:54.592Z,102375.38
2023-02-05T23:22:57.482Z,102380.69
2023-02-05T23:26:25.390Z,102387.78
2023-02-05T23:29:28.142Z,102393.94
2023-02-05T23:32:30.642Z,102392.03
2023-02-05T23:35:33.581Z,102401.66
2023-02-05T23:38:37.393Z,102401.75
2023-02-05T23:41:40.331Z,102395.56
2023-02-05T23:44:42.915Z,102388.25
2023-02-05T23:47:45.522Z,102384.19
2023-02-05T23:50:55.021Z,102391.94
2023-02-05T23:53:57.771Z,102388.34
2023-02-05T23:57:00.277Z,102399.75
